Time;durP1;ratioP1;P1;durP2;ratioP2;P2;SDS_P1;SDS_P2;PMS_P1;PMS_P2;Temp;Humidity;BMP_temperature;BMP_pressure;BME280_temperature;BME280_humidity;BME280_pressure;Samples;Min_cycle;Max_cycle;Signal;HPM_P1;HPM_P2
2022/07/01 00:01:28;;;;;;;1.23;1.13;;;22.10;99.90;;;;;;5053235;28;20214;-69
2022/07/01 00:03:53;;;;;;;2.55;1.70;;;22.10;99.90;;;;;;5053297;28;20201;-69
2022/07/01 00:06:20;;;;;;;2.75;1.92;;;22.10;99.90;;;;;;5052868;28;20197;-70
2022/07/01 00:08:47;;;;;;;1.45;1.35;;;22.10;99.90;;;;;;5053287;28;20284;-69
2022/07/01 00:11:14;;;;;;;1.52;1.38;;;22.00;99.90;;;;;;5053170;28;20292;-70
2022/07/01 00:13:39;;;;;;;2.75;1.70;;;21.90;99.90;;;;;;5053016;28;20208;-69
2022/07/01 00:16:05;;;;;;;1.58;1.48;;;21.90;99.90;;;;;;5053073;28;20585;-68
2022/07/01 00:18:31;;;;;;;1.42;1.33;;;21.90;99.90;;;;;;5058644;28;20217;-69
2022/07/01 00:20:57;;;;;;;1.77;1.55;;;21.80;99.90;;;;;;5053063;28;20189;-69
2022/07/01 00:23:23;;;;;;;0.90;0.80;;;21.80;99.90;;;;;;5053085;28;20193;-69
2022/07/01 00:25:48;;;;;;;3.03;1.30;;;21.80;99.90;;;;;;5052820;28;20204;-69
2022/07/01 00:28:14;;;;;;;3.58;1.50;;;21.70;99.90;;;;;;5052842;28;20212;-71
2022/07/01 00:30:40;;;;;;;1.67;1.58;;;21.60;99.90;;;;;;5052152;28;20189;-69
2022/07/01 00:33:06;;;;;;;1.90;1.33;;;21.50;99.90;;;;;;5051342;28;20224;-70
2022/07/01 00:35:31;;;;;;;0.93;0.90;;;21.40;99.90;;;;;;5052661;28;20189;-70
2022/07/01 00:37:57;;;;;;;3.08;1.90;;;21.40;99.90;;;;;;5052753;28;20194;-69
2022/07/01 00:40:24;;;;;;;1.40;0.93;;;21.30;99.90;;;;;;5052788;28;20589;-69
2022/07/01 00:42:49;;;;;;;1.58;1.42;;;21.40;99.90;;;;;;5052292;28;20194;-69
2022/07/01 00:45:16;;;;;;;2.15;1.88;;;21.30;99.90;;;;;;5052510;28;20655;-68
2022/07/01 00:47:42;;;;;;;3.72;1.30;;;21.20;99.90;;;;;;5052175;28;20199;-69
2022/07/01 00:50:13;;;;;;;1.48;1.23;;;21.20;99.90;;;;;;5051315;28;20302;-69
2022/07/01 00:52:40;;;;;;;2.58;1.30;;;21.30;99.90;;;;;;5052221;28;20695;-69
2022/07/01 00:55:08;;;;;;;1.15;1.08;;;21.40;99.90;;;;;;5052579;28;20201;-69
2022/07/01 00:57:36;;;;;;;2.63;1.25;;;21.40;99.90;;;;;;5052170;28;20718;-68
2022/07/01 01:00:11;;;;;;;0.90;0.90;;;21.40;99.90;;;;;;5050936;28;20193;-70
2022/07/01 01:02:37;;;;;;;1.65;1.45;;;21.50;99.90;;;;;;5050452;28;20280;-66
2022/07/01 01:05:04;;;;;;;2.38;1.60;;;21.60;99.90;;;;;;5052232;28;20193;-69
2022/07/01 01:07:31;;;;;;;2.13;1.40;;;21.60;99.90;;;;;;5071301;28;20196;-71
2022/07/01 01:09:58;;;;;;;1.27;1.17;;;21.60;99.90;;;;;;5072252;28;20371;-70
2022/07/01 01:12:25;;;;;;;2.97;1.35;;;21.70;99.90;;;;;;5070571;28;20562;-68
2022/07/01 01:14:51;;;;;;;1.63;1.40;;;21.80;99.90;;;;;;5062662;28;20682;-68
2022/07/01 01:17:18;;;;;;;1.65;1.55;;;21.80;99.90;;;;;;5050487;28;20581;-69
2022/07/01 01:19:44;;;;;;;1.23;1.05;;;21.80;99.90;;;;;;5051994;28;20221;-69
2022/07/01 01:22:14;;;;;;;2.45;1.75;;;21.80;99.90;;;;;;5050592;28;20268;-69
2022/07/01 01:24:40;;;;;;;2.08;1.58;;;21.90;99.90;;;;;;5052010;28;20208;-69
2022/07/01 01:27:06;;;;;;;2.65;1.95;;;21.90;99.90;;;;;;5051839;28;20676;-68
2022/07/01 01:29:34;;;;;;;1.65;1.52;;;21.90;99.90;;;;;;5051642;28;20208;-69
2022/07/01 01:32:00;;;;;;;1.23;1.13;;;21.70;99.90;;;;;;5051863;28;20563;-68
2022/07/01 01:34:26;;;;;;;1.55;1.45;;;21.60;99.90;;;;;;5051493;28;20541;-68
2022/07/01 01:36:52;;;;;;;2.72;1.90;;;21.50;99.90;;;;;;5051577;28;20199;-69
2022/07/01 01:39:18;;;;;;;4.13;2.05;;;21.40;99.90;;;;;;5051669;28;20274;-68
2022/07/01 01:41:45;;;;;;;2.08;1.45;;;21.30;99.90;;;;;;5051660;28;20664;-68
2022/07/01 01:44:11;;;;;;;4.82;1.63;;;21.40;99.90;;;;;;5051638;28;20193;-67
2022/07/01 01:46:37;;;;;;;3.03;1.38;;;21.40;99.90;;;;;;5051540;28;20240;-67
2022/07/01 01:49:04;;;;;;;1.92;1.77;;;21.40;99.90;;;;;;5051662;28;20207;-68
2022/07/01 01:51:30;;;;;;;2.60;1.55;;;21.50;99.90;;;;;;5060950;28;20217;-67
2022/07/01 01:53:56;;;;;;;1.33;1.23;;;21.40;99.90;;;;;;5074162;28;20208;-67
2022/07/01 01:56:22;;;;;;;4.05;1.85;;;21.40;99.90;;;;;;5075019;28;20200;-68
2022/07/01 01:58:49;;;;;;;1.83;1.05;;;21.40;99.90;;;;;;5075456;28;20717;-67
2022/07/01 02:01:16;;;;;;;2.05;1.85;;;21.50;99.90;;;;;;5070061;28;20188;-69
2022/07/01 02:03:43;;;;;;;2.53;1.15;;;21.50;99.90;;;;;;5075770;28;20185;-68
2022/07/01 02:06:10;;;;;;;1.70;1.58;;;21.60;99.90;;;;;;5070713;28;20255;-67
2022/07/01 02:08:40;;;;;;;1.60;1.50;;;21.50;99.90;;;;;;5055227;28;20243;-67
2022/07/01 02:11:06;;;;;;;1.60;1.48;;;21.30;99.90;;;;;;5055324;28;20201;-68
2022/07/01 02:13:32;;;;;;;3.10;1.75;;;21.10;99.90;;;;;;5055233;28;20554;-69
2022/07/01 02:15:58;;;;;;;3.38;1.95;;;21.00;99.90;;;;;;5054119;28;20194;-69
2022/07/01 02:18:24;;;;;;;1.40;1.27;;;20.90;99.90;;;;;;5038377;28;20222;-69
2022/07/01 02:20:50;;;;;;;1.50;1.40;;;21.00;99.90;;;;;;5035264;28;20195;-68
2022/07/01 02:23:15;;;;;;;2.17;1.42;;;20.90;99.90;;;;;;5035378;28;20344;-68
2022/07/01 02:25:41;;;;;;;3.08;2.20;;;20.70;99.90;;;;;;5017447;28;20194;-68
2022/07/01 02:28:08;;;;;;;1.50;1.30;;;20.60;99.90;;;;;;5035472;28;20201;-68
2022/07/01 02:30:36;;;;;;;1.58;1.33;;;20.60;99.90;;;;;;5034936;28;20242;-68
2022/07/01 02:33:05;;;;;;;1.75;1.38;;;20.70;99.90;;;;;;5017078;28;20217;-69
2022/07/01 02:35:36;;;;;;;3.00;1.90;;;20.70;99.90;;;;;;5034323;28;20798;-69
2022/07/01 02:38:03;;;;;;;1.45;1.30;;;20.80;99.90;;;;;;5034609;28;20198;-68
2022/07/01 02:40:28;;;;;;;2.42;1.65;;;20.90;99.90;;;;;;5016889;28;20680;-68
2022/07/01 02:42:54;;;;;;;1.30;1.20;;;21.00;99.90;;;;;;5035014;28;20214;-68
2022/07/01 02:45:20;;;;;;;2.25;1.30;;;21.20;99.90;;;;;;5034711;28;20632;-69
2022/07/01 02:47:46;;;;;;;12.05;2.20;;;21.40;99.90;;;;;;5026116;28;20204;-68
2022/07/01 02:50:12;;;;;;;2.30;1.80;;;21.50;99.90;;;;;;5054799;28;20202;-69
2022/07/01 02:52:39;;;;;;;1.38;1.27;;;21.60;99.90;;;;;;5054455;28;20712;-68
2022/07/01 02:55:08;;;;;;;1.58;1.48;;;21.50;99.90;;;;;;5054611;28;20193;-68
2022/07/01 02:57:33;;;;;;;4.18;2.05;;;21.50;99.90;;;;;;5054444;28;20205;-68
2022/07/01 02:59:59;;;;;;;1.75;1.58;;;21.40;99.90;;;;;;5054575;28;20269;-69
2022/07/01 03:02:25;;;;;;;2.15;1.83;;;21.40;99.90;;;;;;5053234;28;20200;-68
2022/07/01 03:04:52;;;;;;;2.50;1.85;;;21.50;99.90;;;;;;5033886;28;20206;-69
2022/07/01 03:07:19;;;;;;;1.30;1.20;;;21.60;99.90;;;;;;5025871;28;20241;-69
2022/07/01 03:09:45;;;;;;;6.95;2.78;;;21.50;99.90;;;;;;5033945;28;20234;-68
2022/07/01 03:12:24;;;;;;;2.65;1.45;;;21.40;99.90;;;;;;5034493;28;20225;-69
2022/07/01 03:15:04;;;;;;;1.85;1.60;;;21.30;99.90;;;;;;5016553;28;20735;-69
2022/07/01 03:17:31;;;;;;;1.23;1.13;;;21.10;99.90;;;;;;5033910;28;20727;-68
2022/07/01 03:19:57;;;;;;;2.90;1.67;;;21.20;99.90;;;;;;5034226;28;20190;-68
2022/07/01 03:22:25;;;;;;;2.08;1.65;;;21.20;99.90;;;;;;5033396;28;20193;-69
2022/07/01 03:24:52;;;;;;;1.48;1.38;;;21.20;99.90;;;;;;5034499;28;20217;-69
2022/07/01 03:27:18;;;;;;;1.75;1.65;;;21.20;99.90;;;;;;5034243;28;20733;-69
2022/07/01 03:29:45;;;;;;;3.25;2.30;;;21.10;99.90;;;;;;5034120;28;20198;-69
2022/07/01 03:32:11;;;;;;;0.93;0.90;;;21.20;99.90;;;;;;5034346;28;20657;-68
2022/07/01 03:34:44;;;;;;;1.90;1.45;;;21.20;99.90;;;;;;5033749;28;20210;-69
2022/07/01 03:37:12;;;;;;;1.50;1.27;;;21.20;99.90;;;;;;5034049;28;20564;-68
2022/07/01 03:39:38;;;;;;;1.75;1.38;;;21.20;99.90;;;;;;5033832;28;20280;-67
2022/07/01 03:42:06;;;;;;;5.20;1.75;;;21.30;99.90;;;;;;5034186;28;20197;-70
2022/07/01 03:44:32;;;;;;;2.60;1.60;;;21.20;99.90;;;;;;5029416;28;20220;-68
2022/07/01 03:46:58;;;;;;;1.08;0.98;;;21.10;99.90;;;;;;5053664;28;20212;-69
2022/07/01 03:49:24;;;;;;;2.47;1.58;;;21.10;99.90;;;;;;5053689;28;20198;-68
2022/07/01 03:51:51;;;;;;;1.23;1.13;;;20.90;99.90;;;;;;5053695;28;20193;-68
2022/07/01 03:57:02;;;;;;;4.13;2.17;;;20.90;99.90;;;;;;5053643;28;20741;-70
2022/07/01 03:59:30;;;;;;;1.48;1.20;;;20.90;99.90;;;;;;5053033;28;20538;-68
2022/07/01 04:01:57;;;;;;;1.70;1.60;;;21.00;99.90;;;;;;5052923;28;20724;-71
2022/07/01 04:04:23;;;;;;;1.67;1.35;;;21.20;99.90;;;;;;5038078;28;20210;-67
2022/07/01 04:06:50;;;;;;;3.33;1.98;;;21.30;99.90;;;;;;5046969;28;20213;-68
2022/07/01 04:09:16;;;;;;;2.58;1.88;;;21.20;99.90;;;;;;5053126;28;20275;-69
2022/07/01 04:11:44;;;;;;;6.03;1.25;;;21.00;99.90;;;;;;5053202;28;20676;-70
2022/07/01 04:14:10;;;;;;;1.60;1.05;;;20.90;99.90;;;;;;5052688;28;20201;-69
2022/07/01 04:16:36;;;;;;;1.45;1.02;;;20.90;99.90;;;;;;5034669;28;20189;-68
2022/07/01 04:19:02;;;;;;;1.38;1.10;;;20.80;99.90;;;;;;5035108;28;20292;-69
2022/07/01 04:24:15;;;;;;;1.25;1.15;;;20.80;99.90;;;;;;5052984;28;20271;-70
2022/07/01 04:26:43;;;;;;;1.40;1.30;;;21.00;99.90;;;;;;5052863;28;20235;-69
2022/07/01 04:29:09;;;;;;;1.27;1.17;;;20.90;99.90;;;;;;5052984;28;20270;-69
2022/07/01 04:31:38;;;;;;;0.93;0.93;;;20.80;99.90;;;;;;5052801;28;20225;-70
2022/07/01 04:34:08;;;;;;;2.47;1.48;;;20.80;99.90;;;;;;5034982;28;20217;-69
2022/07/01 04:36:34;;;;;;;3.22;1.40;;;20.60;99.90;;;;;;5034701;28;20205;-69
2022/07/01 04:39:01;;;;;;;1.58;1.48;;;20.60;99.90;;;;;;5052548;28;20612;-69
2022/07/01 04:44:10;;;;;;;2.55;1.60;;;20.50;99.90;;;;;;5052702;28;20204;-69
2022/07/01 04:46:36;;;;;;;2.28;1.50;;;20.60;99.90;;;;;;5052411;28;20197;-69
2022/07/01 04:49:02;;;;;;;2.95;2.17;;;20.70;99.90;;;;;;5052522;28;20288;-68
2022/07/01 04:51:28;;;;;;;4.85;1.80;;;20.60;99.90;;;;;;5052450;28;20206;-69
2022/07/01 04:53:54;;;;;;;1.98;1.60;;;20.60;99.90;;;;;;5034560;28;20220;-69
2022/07/01 04:56:20;;;;;;;0.57;0.57;;;20.60;99.90;;;;;;5052298;28;20192;-69
2022/07/01 04:58:46;;;;;;;2.00;1.50;;;20.80;99.90;;;;;;5052326;28;20190;-72
2022/07/01 05:01:12;;;;;;;1.92;1.30;;;20.80;99.90;;;;;;5052047;28;20238;-68
2022/07/01 05:03:38;;;;;;;1.80;1.50;;;20.60;99.90;;;;;;5052154;28;20578;-69
2022/07/01 05:06:04;;;;;;;3.50;1.50;;;20.50;99.90;;;;;;5051513;28;20273;-69
2022/07/01 05:08:30;;;;;;;1.63;1.35;;;20.50;99.90;;;;;;5034211;28;20240;-69
2022/07/01 05:10:56;;;;;;;2.15;1.80;;;20.50;99.90;;;;;;5034272;28;20718;-69
2022/07/01 05:13:22;;;;;;;1.38;1.23;;;20.60;99.90;;;;;;5051933;28;20208;-69
2022/07/01 05:15:47;;;;;;;0.90;0.90;;;20.60;99.90;;;;;;5052195;28;20197;-69
2022/07/01 05:23:42;;;;;;;1.65;1.13;;;20.60;99.90;;;;;;5052274;28;20718;-69
2022/07/01 05:26:07;;;;;;;2.60;1.45;;;20.80;99.90;;;;;;5052013;28;20205;-70
2022/07/01 05:28:33;;;;;;;0.68;0.68;;;20.90;99.90;;;;;;5051001;28;20197;-69
2022/07/01 05:30:59;;;;;;;1.58;1.45;;;21.00;99.90;;;;;;5051954;28;20208;-69
2022/07/01 05:33:26;;;;;;;3.13;1.88;;;21.10;99.90;;;;;;5051651;28;20205;-70
2022/07/01 05:35:52;;;;;;;4.00;1.23;;;21.00;99.90;;;;;;5032174;28;20255;-69
2022/07/01 05:38:18;;;;;;;2.17;1.55;;;20.90;99.90;;;;;;5051727;28;20194;-69
2022/07/01 05:40:44;;;;;;;1.20;1.10;;;20.90;99.90;;;;;;5051811;28;20189;-69
2022/07/01 05:43:09;;;;;;;1.58;1.27;;;20.80;99.90;;;;;;5051777;28;20190;-69
2022/07/01 05:45:35;;;;;;;2.53;1.50;;;20.80;99.90;;;;;;5051609;28;20255;-70
2022/07/01 05:48:01;;;;;;;5.40;1.67;;;21.10;99.90;;;;;;5051745;28;20216;-69
2022/07/01 05:50:27;;;;;;;2.17;1.98;;;21.20;99.90;;;;;;5052029;28;20197;-68
2022/07/01 05:52:52;;;;;;;1.92;1.45;;;21.10;99.90;;;;;;5050952;28;20204;-69
2022/07/01 05:55:18;;;;;;;2.75;1.80;;;21.10;99.90;;;;;;5051353;28;20186;-69
2022/07/01 05:57:44;;;;;;;2.03;1.35;;;21.20;99.90;;;;;;5051488;28;20243;-69
2022/07/01 06:00:10;;;;;;;12.85;1.45;;;21.40;99.90;;;;;;5051779;28;20193;-70
2022/07/01 06:02:36;;;;;;;2.08;1.23;;;21.40;99.90;;;;;;5051298;28;20190;-69
2022/07/01 06:05:03;;;;;;;1.55;1.38;;;21.30;99.90;;;;;;5051563;28;20213;-70
2022/07/01 06:07:29;;;;;;;1.95;1.42;;;21.30;99.90;;;;;;5051318;28;20193;-69
2022/07/01 06:09:55;;;;;;;2.08;1.50;;;21.40;99.90;;;;;;5051615;28;20191;-69
2022/07/01 06:12:21;;;;;;;2.35;1.65;;;21.60;99.90;;;;;;5051376;28;20197;-70
2022/07/01 06:14:47;;;;;;;1.27;1.05;;;21.70;99.90;;;;;;5051375;28;20217;-70
2022/07/01 06:17:13;;;;;;;1.13;1.05;;;21.80;99.90;;;;;;5043587;28;20691;-70
2022/07/01 06:19:39;;;;;;;1.20;1.10;;;22.00;99.90;;;;;;5071101;28;20201;-70
2022/07/01 06:22:05;;;;;;;1.30;1.17;;;22.20;99.90;;;;;;5071278;28;20185;-70
2022/07/01 06:24:31;;;;;;;1.88;1.50;;;22.10;99.90;;;;;;5071362;28;20590;-70
2022/07/01 06:26:57;;;;;;;2.00;1.42;;;22.10;99.90;;;;;;5071374;28;20193;-70
2022/07/01 06:29:22;;;;;;;2.45;1.25;;;22.10;99.90;;;;;;5071109;28;20207;-73
2022/07/01 06:31:48;;;;;;;3.25;1.40;;;22.00;99.90;;;;;;5069445;28;20567;-69
2022/07/01 06:34:14;;;;;;;2.42;1.23;;;21.90;99.90;;;;;;5071366;28;20255;-70
2022/07/01 06:36:39;;;;;;;2.75;1.60;;;21.90;99.90;;;;;;5071027;28;20193;-71
2022/07/01 06:39:05;;;;;;;2.72;1.45;;;22.00;99.90;;;;;;5071220;28;20623;-70
2022/07/01 06:41:31;;;;;;;9.02;1.67;;;22.00;99.90;;;;;;5074657;28;20243;-67
2022/07/01 06:44:02;;;;;;;1.17;1.08;;;21.80;99.90;;;;;;5074989;28;20189;-71
2022/07/01 06:46:29;;;;;;;2.35;1.55;;;22.00;99.90;;;;;;5074865;28;20244;-70
2022/07/01 06:48:55;;;;;;;3.78;1.95;;;22.10;99.90;;;;;;5074906;28;20201;-70
2022/07/01 06:51:22;;;;;;;1.80;1.48;;;22.40;99.90;;;;;;5066376;28;20206;-70
2022/07/01 06:53:49;;;;;;;4.18;1.40;;;22.30;99.90;;;;;;5054780;28;20201;-68
2022/07/01 06:56:15;;;;;;;1.75;1.65;;;22.20;99.90;;;;;;5054784;28;20186;-70
2022/07/01 06:58:41;;;;;;;2.50;1.83;;;22.20;99.90;;;;;;5054548;28;20185;-70
2022/07/01 07:01:07;;;;;;;2.00;1.67;;;22.10;99.90;;;;;;5054462;28;20194;-69
2022/07/01 07:03:33;;;;;;;4.15;1.80;;;22.10;99.90;;;;;;5054299;28;20276;-69
2022/07/01 07:06:00;;;;;;;2.38;1.65;;;21.90;99.90;;;;;;5062116;28;20201;-70
2022/07/01 07:08:27;;;;;;;2.83;1.83;;;22.00;99.90;;;;;;5074495;28;20193;-70
2022/07/01 07:10:52;;;;;;;2.45;1.38;;;22.10;99.90;;;;;;5074470;28;20204;-70
2022/07/01 07:13:18;;;;;;;2.15;1.95;;;22.00;99.90;;;;;;5073554;28;20197;-71
2022/07/01 07:15:45;;;;;;;3.00;1.60;;;22.20;99.90;;;;;;5074381;28;20762;-69
2022/07/01 07:18:10;;;;;;;2.45;1.58;;;22.10;99.90;;;;;;5059653;28;20225;-69
2022/07/01 07:20:36;;;;;;;2.80;1.67;;;22.00;99.90;;;;;;5053953;28;20190;-70
2022/07/01 07:23:02;;;;;;;3.17;1.63;;;22.10;99.90;;;;;;5036286;28;20279;-68
2022/07/01 07:25:28;;;;;;;3.13;1.58;;;22.10;99.90;;;;;;5054080;28;20200;-70
2022/07/01 07:27:54;;;;;;;2.10;1.75;;;22.10;99.90;;;;;;5036353;28;20193;-70
2022/07/01 07:30:20;;;;;;;3.75;1.52;;;22.20;99.90;;;;;;5033725;28;20197;-70
2022/07/01 07:32:46;;;;;;;1.25;1.15;;;22.20;99.90;;;;;;5016368;28;20205;-70
2022/07/01 07:35:12;;;;;;;2.75;1.52;;;22.10;99.90;;;;;;5034132;28;20194;-70
2022/07/01 07:37:38;;;;;;;4.28;2.30;;;22.10;99.90;;;;;;5033783;28;20190;-71
2022/07/01 07:40:07;;;;;;;2.22;1.70;;;22.00;99.90;;;;;;5016221;28;20202;-71
2022/07/01 07:42:33;;;;;;;2.20;1.98;;;21.80;99.90;;;;;;5033778;28;20182;-71
2022/07/01 07:44:59;;;;;;;1.65;1.42;;;21.70;99.90;;;;;;5033841;28;20252;-71
2022/07/01 07:47:25;;;;;;;2.45;2.00;;;21.90;99.90;;;;;;5033675;28;20194;-71
2022/07/01 07:49:51;;;;;;;1.60;1.17;;;22.00;99.90;;;;;;5052553;28;20890;-71
2022/07/01 07:52:17;;;;;;;2.13;1.92;;;21.90;99.90;;;;;;5034461;28;20228;-71
2022/07/01 07:54:43;;;;;;;3.40;2.60;;;21.80;99.90;;;;;;5053879;28;20205;-71
2022/07/01 07:57:08;;;;;;;2.22;1.73;;;21.90;99.90;;;;;;5035752;28;20704;-70
2022/07/01 07:59:35;;;;;;;1.80;1.52;;;22.10;99.90;;;;;;5053511;28;20490;-70
2022/07/01 08:02:01;;;;;;;1.95;1.75;;;22.00;99.90;;;;;;5035493;28;20250;-69
2022/07/01 08:04:27;;;;;;;2.72;1.95;;;22.20;99.90;;;;;;5035396;28;20675;-73
2022/07/01 08:06:54;;;;;;;2.40;1.88;;;22.10;99.90;;;;;;5031902;28;20202;-68
2022/07/01 08:09:19;;;;;;;1.92;1.48;;;22.10;99.90;;;;;;5033307;28;20555;-70
2022/07/01 08:11:45;;;;;;;1.30;1.20;;;22.20;99.90;;;;;;5033324;28;20248;-72
2022/07/01 08:14:11;;;;;;;1.88;1.60;;;22.30;99.90;;;;;;5015566;28;20253;-71
2022/07/01 08:16:37;;;;;;;2.88;2.15;;;22.30;99.90;;;;;;5033060;28;20190;-72
2022/07/01 08:19:03;;;;;;;2.05;1.85;;;22.30;99.90;;;;;;5033202;28;20197;-71
2022/07/01 08:21:29;;;;;;;3.60;2.47;;;22.40;99.90;;;;;;5033276;28;20190;-71
2022/07/01 08:23:55;;;;;;;2.10;1.58;;;22.60;99.90;;;;;;5033155;28;20889;-70
2022/07/01 08:26:21;;;;;;;5.35;1.92;;;22.70;99.90;;;;;;5052325;28;20221;-67
2022/07/01 08:28:47;;;;;;;2.88;2.42;;;22.80;99.90;;;;;;5035205;28;20200;-67
2022/07/01 08:31:13;;;;;;;1.98;1.58;;;22.80;99.90;;;;;;5052403;28;20251;-67
2022/07/01 08:33:40;;;;;;;2.78;2.20;;;22.70;99.90;;;;;;5052326;28;20876;-67
2022/07/01 08:36:07;;;;;;;2.10;1.90;;;22.60;99.90;;;;;;5035111;28;20220;-67
2022/07/01 08:38:34;;;;;;;2.30;1.33;;;22.30;99.90;;;;;;5052732;28;20746;-67
2022/07/01 08:41:01;;;;;;;3.83;1.90;;;22.40;99.90;;;;;;5052648;28;20260;-67
2022/07/01 08:43:27;;;;;;;3.33;2.15;;;22.50;99.90;;;;;;5034854;28;20197;-66
2022/07/01 08:45:53;;;;;;;2.65;2.20;;;22.80;99.90;;;;;;5052641;28;20288;-66
2022/07/01 08:48:19;;;;;;;1.73;1.52;;;23.00;99.90;;;;;;5052434;28;20610;-68
2022/07/01 08:50:45;;;;;;;2.20;1.40;;;23.20;99.90;;;;;;5053029;28;20744;-67
2022/07/01 08:53:12;;;;;;;2.13;1.90;;;23.20;99.90;;;;;;5034427;28;20707;-67
2022/07/01 08:58:26;;;;;;;1.88;1.73;;;23.60;99.90;;;;;;5052408;28;20694;-67
2022/07/01 09:00:52;;;;;;;4.40;2.30;;;24.20;99.90;;;;;;5052307;28;20190;-68
2022/07/01 09:03:22;;;;;;;3.50;2.13;;;24.70;99.90;;;;;;5052486;28;20287;-68
2022/07/01 09:05:51;;;;;;;3.95;1.65;;;24.80;99.90;;;;;;5046455;28;20535;-67
2022/07/01 09:08:17;;;;;;;2.55;1.67;;;25.00;99.90;;;;;;5032327;28;20194;-68
2022/07/01 09:10:43;;;;;;;1.90;1.50;;;25.30;99.90;;;;;;5032209;28;20217;-69
2022/07/01 09:13:11;;;;;;;3.03;1.98;;;25.50;99.90;;;;;;5032277;28;20672;-67
2022/07/01 09:15:38;;;;;;;7.75;2.22;;;25.80;99.90;;;;;;5032066;28;20187;-68
2022/07/01 09:18:14;;;;;;;2.47;1.65;;;25.50;99.90;;;;;;5032052;28;20218;-68
2022/07/01 09:20:42;;;;;;;2.80;1.48;;;25.30;99.90;;;;;;5034159;28;20670;-68
2022/07/01 09:23:10;;;;;;;17.33;2.53;;;25.30;99.90;;;;;;5051762;28;20275;-67
2022/07/01 09:25:39;;;;;;;3.28;1.92;;;25.30;99.90;;;;;;5051263;28;20683;-67
2022/07/01 09:28:09;;;;;;;3.25;2.05;;;25.40;99.90;;;;;;5052027;28;20501;-67
2022/07/01 09:30:36;;;;;;;3.05;2.30;;;26.10;99.90;;;;;;5051832;28;20189;-68
2022/07/01 09:33:12;;;;;;;7.53;2.13;;;26.40;99.90;;;;;;5051755;28;20276;-67
2022/07/01 09:35:39;;;;;;;2.92;1.65;;;25.80;99.90;;;;;;5051775;28;20616;-68
2022/07/01 09:38:07;;;;;;;2.03;1.77;;;25.30;99.90;;;;;;5051887;28;20194;-67
2022/07/01 09:40:57;;;;;;;4.28;2.55;;;24.90;99.90;;;;;;5051411;28;20185;-67
2022/07/01 09:43:31;;;;;;;1.92;1.45;;;24.60;99.90;;;;;;5051570;28;20553;-67
2022/07/01 09:45:59;;;;;;;4.43;2.65;;;24.30;99.90;;;;;;5051951;28;20235;-67
2022/07/01 09:48:43;;;;;;;2.30;1.58;;;24.20;99.90;;;;;;5051465;28;20189;-67
2022/07/01 09:51:11;;;;;;;3.30;1.60;;;23.90;99.90;;;;;;5051764;28;20211;-67
2022/07/01 09:53:37;;;;;;;2.83;2.15;;;23.50;99.90;;;;;;5051552;28;20254;-68
2022/07/01 09:56:03;;;;;;;2.80;1.33;;;23.60;99.90;;;;;;5051751;28;20185;-67
2022/07/01 09:58:28;;;;;;;2.45;1.55;;;23.80;99.90;;;;;;5051441;28;20591;-67
2022/07/01 10:00:54;;;;;;;2.17;1.80;;;23.90;99.90;;;;;;5051559;28;20757;-67
2022/07/01 10:03:21;;;;;;;2.55;1.45;;;24.20;99.90;;;;;;5051466;28;20579;-68
2022/07/01 10:06:24;;;;;;;2.95;2.33;;;24.40;99.90;;;;;;5051428;28;20227;-67
2022/07/01 10:09:26;;;;;;;2.85;1.70;;;24.70;99.90;;;;;;5033533;28;20208;-67
2022/07/01 10:12:08;;;;;;;1.63;1.20;;;24.60;99.90;;;;;;5051310;28;20205;-67
2022/07/01 10:14:38;;;;;;;2.30;1.63;;;24.50;99.90;;;;;;5053423;28;20608;-68
2022/07/01 10:17:06;;;;;;;3.38;2.00;;;24.70;99.90;;;;;;5044476;28;20303;-67
2022/07/01 10:19:33;;;;;;;1.58;1.48;;;25.00;99.90;;;;;;5075496;28;20193;-68
2022/07/01 10:22:25;;;;;;;3.72;1.92;;;25.10;99.90;;;;;;5075507;28;20207;-68
2022/07/01 10:24:51;;;;;;;0.82;0.82;;;25.20;99.90;;;;;;5075218;28;20192;-68
2022/07/01 10:27:35;;;;;;;2.13;1.60;;;25.50;99.90;;;;;;5075612;28;20188;-68
2022/07/01 10:30:30;;;;;;;2.80;1.40;;;25.70;99.90;;;;;;5074357;28;20592;-68
2022/07/01 10:32:59;;;;;;;3.58;1.85;;;25.50;99.90;;;;;;5073557;28;20211;-67
2022/07/01 10:35:25;;;;;;;6.13;1.98;;;25.50;99.90;;;;;;5075708;28;20634;-68
2022/07/01 10:38:01;;;;;;;3.58;1.80;;;25.40;99.90;;;;;;5062399;28;20217;-67
2022/07/01 10:40:48;;;;;;;2.00;1.67;;;25.30;99.90;;;;;;5055135;28;20189;-68
2022/07/01 10:43:32;;;;;;;3.45;1.90;;;25.50;99.90;;;;;;5055081;28;20193;-68
2022/07/01 10:45:58;;;;;;;2.38;1.45;;;26.00;99.90;;;;;;5055129;28;20193;-67
2022/07/01 10:48:25;;;;;;;2.95;1.75;;;26.70;99.90;;;;;;5055120;28;20203;-68
2022/07/01 10:50:51;;;;;;;2.38;2.03;;;27.60;99.90;;;;;;5053123;28;20283;-68
2022/07/01 10:53:18;;;;;;;2.83;1.50;;;28.30;99.90;;;;;;5053059;28;20691;-68
2022/07/01 10:55:52;;;;;;;2.03;1.48;;;28.20;99.90;;;;;;5054499;28;20198;-67
2022/07/01 10:58:21;;;;;;;3.72;1.70;;;27.80;99.90;;;;;;5053453;28;20197;-67
2022/07/01 11:00:50;;;;;;;1.73;1.50;;;27.40;99.90;;;;;;5054729;28;20213;-70
2022/07/01 11:03:21;;;;;;;8.02;1.63;;;27.40;99.90;;;;;;5054640;28;20201;-68
2022/07/01 11:05:49;;;;;;;0.90;0.90;;;27.50;99.90;;;;;;5055166;28;20272;-68
2022/07/01 11:08:15;;;;;;;1.52;1.33;;;27.90;99.90;;;;;;5053552;28;20703;-68
2022/07/01 11:10:42;;;;;;;2.63;2.05;;;28.00;99.90;;;;;;5054627;28;20220;-67
2022/07/01 11:13:08;;;;;;;1.60;0.93;;;28.10;99.90;;;;;;5056705;28;20782;-69
2022/07/01 11:15:34;;;;;;;2.95;1.50;;;28.40;99.90;;;;;;5073334;28;20250;-68
2022/07/01 11:18:00;;;;;;;1.33;1.08;;;29.10;99.90;;;;;;5061346;28;20630;-68
2022/07/01 11:20:30;;;;;;;1.05;0.60;;;29.50;99.90;;;;;;5053961;28;20268;-67
2022/07/01 11:22:56;;;;;;;2.78;1.35;;;28.60;99.90;;;;;;5054346;28;20189;-68
2022/07/01 11:25:22;;;;;;;1.45;1.10;;;28.40;99.90;;;;;;5053573;28;20211;-68
2022/07/01 11:27:50;;;;;;;1.13;1.02;;;28.70;99.90;;;;;;5054467;28;20189;-69
2022/07/01 11:30:17;;;;;;;0.65;0.65;;;29.10;99.90;;;;;;5054065;28;20559;-68
2022/07/01 11:32:46;;;;;;;6.57;1.48;;;28.30;99.90;;;;;;5052691;28;20189;-68
2022/07/01 11:41:22;;;;;;;5.22;1.45;;;27.70;99.90;;;;;;5034241;28;20205;-68
2022/07/01 11:43:50;;;;;;;1.23;1.10;;;27.60;99.90;;;;;;5034055;28;20193;-68
2022/07/01 11:46:16;;;;;;;2.03;1.23;;;27.70;99.90;;;;;;5033813;28;20200;-67
2022/07/01 11:48:50;;;;;;;1.13;0.77;;;27.40;99.90;;;;;;5033813;28;20190;-67
2022/07/01 11:51:21;;;;;;;1.58;1.10;;;27.80;99.90;;;;;;5033930;28;20205;-68
2022/07/01 11:53:50;;;;;;;1.58;1.35;;;29.00;99.90;;;;;;5016190;28;20236;-68
2022/07/01 11:56:30;;;;;;;1.85;1.30;;;29.40;99.90;;;;;;5015481;28;20675;-67
2022/07/01 11:58:56;;;;;;;1.42;1.13;;;29.30;99.90;;;;;;5033497;28;20719;-69
2022/07/01 12:01:45;;;;;;;9.70;2.13;;;29.50;99.90;;;;;;5033634;28;20691;-68
2022/07/01 12:04:14;;;;;;;1.63;1.27;;;29.80;99.90;;;;;;5015861;28;20280;-68
2022/07/01 12:06:42;;;;;;;2.38;0.93;;;29.90;99.90;;;;;;5045405;28;20674;-68
2022/07/01 12:09:14;;;;;;;1.42;1.02;;;29.80;99.90;;;;;;5052121;28;20679;-68
2022/07/01 12:11:51;;;;;;;3.08;1.00;;;29.50;99.90;;;;;;5033647;28;20692;-69
2022/07/01 12:14:31;;;;;;;1.83;0.90;;;29.30;99.90;;;;;;5033702;28;20526;-68
2022/07/01 12:17:00;;;;;;;1.08;0.80;;;29.60;99.90;;;;;;5033309;28;20221;-68
2022/07/01 12:19:35;;;;;;;2.75;0.70;;;30.20;99.90;;;;;;5015765;28;20683;-69
2022/07/01 12:22:01;;;;;;;0.90;0.80;;;30.50;99.90;;;;;;5033500;28;20185;-69
2022/07/01 12:24:27;;;;;;;1.23;1.10;;;30.40;99.90;;;;;;5033194;28;20198;-69
2022/07/01 12:27:00;;;;;;;1.23;0.82;;;30.10;99.90;;;;;;5033155;28;20198;-69
2022/07/01 12:29:29;;;;;;;0.85;0.77;;;29.20;99.90;;;;;;5015267;28;20193;-69
2022/07/01 12:32:03;;;;;;;0.88;0.60;;;28.50;99.90;;;;;;5015679;28;20193;-69
2022/07/01 12:34:46;;;;;;;0.98;0.82;;;28.10;99.90;;;;;;5015487;28;20283;-69
2022/07/01 12:37:17;;;;;;;0.60;0.55;;;28.60;99.90;;;;;;5015298;28;20575;-69
2022/07/01 12:40:03;;;;;;;0.70;0.70;;;29.30;99.90;;;;;;5015476;28;20301;-69
2022/07/01 12:42:31;;;;;;;1.85;1.25;;;29.80;99.90;;;;;;5033219;28;20280;-69
2022/07/01 12:45:02;;;;;;;1.65;1.10;;;30.40;99.90;;;;;;5032958;28;20196;-69
2022/07/01 12:47:31;;;;;;;1.35;0.95;;;30.50;99.90;;;;;;5032962;28;20221;-69
2022/07/01 12:50:20;;;;;;;2.40;1.25;;;30.30;99.90;;;;;;5033661;28;20197;-68
2022/07/01 12:53:12;;;;;;;1.50;1.20;;;29.70;99.90;;;;;;5033105;28;20196;-69
2022/07/01 12:55:46;;;;;;;4.05;1.10;;;29.20;99.90;;;;;;5032907;28;20204;-69
2022/07/01 12:58:17;;;;;;;1.35;0.75;;;29.50;99.90;;;;;;5032550;28;20687;-69
2022/07/01 13:00:46;;;;;;;2.03;1.23;;;29.90;99.90;;;;;;5014922;28;20229;-69
2022/07/01 13:03:12;;;;;;;1.52;1.02;;;30.00;99.90;;;;;;5032419;28;20189;-69
2022/07/01 13:05:41;;;;;;;0.70;0.68;;;29.90;99.90;;;;;;5034704;28;20661;-70
2022/07/01 13:08:08;;;;;;;0.70;0.70;;;29.80;99.90;;;;;;5052657;28;20243;-69
2022/07/01 13:10:34;;;;;;;1.77;1.33;;;29.40;99.90;;;;;;5052466;28;20644;-69
2022/07/01 13:13:00;;;;;;;2.67;1.30;;;29.30;99.90;;;;;;5052554;28;20196;-70